RJNA(METAR)
01/24 01:00
METAR RJNA 231600Z 28004KT 9999 FEW030 SCT050 M00/M03 Q1021 RMK
1CU030 4SC050 A3016=
戻る
トップページへ戻る
IMOC Co,.Ltd.